sensor_id;sensor_type;location;lat;lon;timestamp;P1;durP1;ratioP1;P2;durP2;ratioP2
3407;SDS011;1717;50.240;8.406;2024-02-21T00:02:21;10.40;;;5.60;;
3407;SDS011;1717;50.240;8.406;2024-02-21T00:04:48;9.93;;;5.40;;
3407;SDS011;1717;50.240;8.406;2024-02-21T00:07:15;11.50;;;6.40;;
3407;SDS011;1717;50.240;8.406;2024-02-21T00:09:43;15.10;;;7.03;;
3407;SDS011;1717;50.240;8.406;2024-02-21T00:12:10;9.70;;;5.63;;
3407;SDS011;1717;50.240;8.406;2024-02-21T00:14:38;12.43;;;5.80;;
3407;SDS011;1717;50.240;8.406;2024-02-21T00:17:05;20.87;;;7.50;;
3407;SDS011;1717;50.240;8.406;2024-02-21T00:19:33;12.20;;;6.30;;
3407;SDS011;1717;50.240;8.406;2024-02-21T00:22:00;12.23;;;7.10;;
3407;SDS011;1717;50.240;8.406;2024-02-21T00:24:27;10.63;;;6.80;;
3407;SDS011;1717;50.240;8.406;2024-02-21T00:26:55;15.43;;;7.30;;
3407;SDS011;1717;50.240;8.406;2024-02-21T00:29:22;15.43;;;7.57;;
3407;SDS011;1717;50.240;8.406;2024-02-21T00:31:49;13.40;;;7.00;;
3407;SDS011;1717;50.240;8.406;2024-02-21T00:34:15;16.83;;;6.23;;
3407;SDS011;1717;50.240;8.406;2024-02-21T00:36:42;12.50;;;6.60;;
3407;SDS011;1717;50.240;8.406;2024-02-21T00:39:09;9.07;;;7.70;;
3407;SDS011;1717;50.240;8.406;2024-02-21T00:41:36;12.77;;;7.30;;
3407;SDS011;1717;50.240;8.406;2024-02-21T00:44:04;13.03;;;6.30;;
3407;SDS011;1717;50.240;8.406;2024-02-21T00:46:31;16.03;;;6.93;;
3407;SDS011;1717;50.240;8.406;2024-02-21T00:48:58;17.67;;;7.77;;
3407;SDS011;1717;50.240;8.406;2024-02-21T00:51:25;11.23;;;6.47;;
3407;SDS011;1717;50.240;8.406;2024-02-21T00:53:52;9.20;;;7.17;;
3407;SDS011;1717;50.240;8.406;2024-02-21T00:56:18;11.63;;;6.53;;
3407;SDS011;1717;50.240;8.406;2024-02-21T00:58:45;10.63;;;6.20;;
3407;SDS011;1717;50.240;8.406;2024-02-21T01:01:13;11.40;;;7.10;;
3407;SDS011;1717;50.240;8.406;2024-02-21T01:03:48;10.37;;;6.67;;
3407;SDS011;1717;50.240;8.406;2024-02-21T01:06:16;14.77;;;6.67;;
3407;SDS011;1717;50.240;8.406;2024-02-21T01:08:42;9.97;;;6.30;;
3407;SDS011;1717;50.240;8.406;2024-02-21T01:11:09;12.33;;;6.23;;
3407;SDS011;1717;50.240;8.406;2024-02-21T01:13:36;9.30;;;6.60;;
3407;SDS011;1717;50.240;8.406;2024-02-21T01:16:03;10.67;;;6.37;;
3407;SDS011;1717;50.240;8.406;2024-02-21T01:18:32;12.80;;;6.37;;
3407;SDS011;1717;50.240;8.406;2024-02-21T01:20:59;11.23;;;7.27;;
3407;SDS011;1717;50.240;8.406;2024-02-21T01:23:26;13.10;;;7.77;;
3407;SDS011;1717;50.240;8.406;2024-02-21T01:25:53;8.90;;;6.33;;
3407;SDS011;1717;50.240;8.406;2024-02-21T01:28:20;10.23;;;6.33;;
3407;SDS011;1717;50.240;8.406;2024-02-21T01:30:47;14.57;;;6.73;;
3407;SDS011;1717;50.240;8.406;2024-02-21T01:33:14;13.03;;;6.70;;
3407;SDS011;1717;50.240;8.406;2024-02-21T01:35:42;12.63;;;6.40;;
3407;SDS011;1717;50.240;8.406;2024-02-21T01:38:09;11.63;;;7.53;;
3407;SDS011;1717;50.240;8.406;2024-02-21T01:40:36;13.90;;;6.77;;
3407;SDS011;1717;50.240;8.406;2024-02-21T01:43:03;17.00;;;7.50;;
3407;SDS011;1717;50.240;8.406;2024-02-21T01:45:30;9.23;;;7.30;;
3407;SDS011;1717;50.240;8.406;2024-02-21T01:47:57;12.57;;;6.00;;
3407;SDS011;1717;50.240;8.406;2024-02-21T01:50:24;14.20;;;6.80;;
3407;SDS011;1717;50.240;8.406;2024-02-21T01:52:52;13.50;;;6.60;;
3407;SDS011;1717;50.240;8.406;2024-02-21T01:55:19;13.23;;;6.77;;
3407;SDS011;1717;50.240;8.406;2024-02-21T01:57:46;12.57;;;7.70;;
3407;SDS011;1717;50.240;8.406;2024-02-21T02:00:13;12.87;;;7.17;;
3407;SDS011;1717;50.240;8.406;2024-02-21T02:02:40;11.67;;;6.97;;
3407;SDS011;1717;50.240;8.406;2024-02-21T02:05:08;16.17;;;7.40;;
3407;SDS011;1717;50.240;8.406;2024-02-21T02:07:36;7.57;;;5.93;;
3407;SDS011;1717;50.240;8.406;2024-02-21T02:10:05;13.90;;;6.80;;
3407;SDS011;1717;50.240;8.406;2024-02-21T02:12:33;13.33;;;7.23;;
3407;SDS011;1717;50.240;8.406;2024-02-21T02:15:00;11.87;;;7.40;;
3407;SDS011;1717;50.240;8.406;2024-02-21T02:17:29;13.57;;;5.77;;
3407;SDS011;1717;50.240;8.406;2024-02-21T02:19:56;14.13;;;6.20;;
3407;SDS011;1717;50.240;8.406;2024-02-21T02:22:25;10.17;;;6.90;;
3407;SDS011;1717;50.240;8.406;2024-02-21T02:24:56;10.70;;;6.37;;
3407;SDS011;1717;50.240;8.406;2024-02-21T02:27:23;15.00;;;9.00;;
3407;SDS011;1717;50.240;8.406;2024-02-21T02:29:50;10.50;;;6.50;;
3407;SDS011;1717;50.240;8.406;2024-02-21T02:32:17;9.70;;;7.00;;
3407;SDS011;1717;50.240;8.406;2024-02-21T02:34:44;10.80;;;7.27;;
3407;SDS011;1717;50.240;8.406;2024-02-21T02:37:11;11.93;;;6.20;;
3407;SDS011;1717;50.240;8.406;2024-02-21T02:39:38;17.50;;;9.10;;
3407;SDS011;1717;50.240;8.406;2024-02-21T02:42:06;9.53;;;6.80;;
3407;SDS011;1717;50.240;8.406;2024-02-21T02:44:33;8.77;;;6.53;;
3407;SDS011;1717;50.240;8.406;2024-02-21T02:47:00;16.30;;;8.37;;
3407;SDS011;1717;50.240;8.406;2024-02-21T02:49:27;9.63;;;5.97;;
3407;SDS011;1717;50.240;8.406;2024-02-21T02:51:54;10.30;;;6.53;;
3407;SDS011;1717;50.240;8.406;2024-02-21T02:54:20;12.80;;;8.03;;
3407;SDS011;1717;50.240;8.406;2024-02-21T02:56:47;13.27;;;6.90;;
3407;SDS011;1717;50.240;8.406;2024-02-21T02:59:17;9.13;;;6.17;;
3407;SDS011;1717;50.240;8.406;2024-02-21T03:01:44;10.60;;;6.90;;
3407;SDS011;1717;50.240;8.406;2024-02-21T03:04:11;11.10;;;6.47;;
3407;SDS011;1717;50.240;8.406;2024-02-21T03:06:38;13.77;;;6.90;;
3407;SDS011;1717;50.240;8.406;2024-02-21T03:09:05;9.30;;;6.53;;
3407;SDS011;1717;50.240;8.406;2024-02-21T03:11:33;10.70;;;6.13;;
3407;SDS011;1717;50.240;8.406;2024-02-21T03:14:00;10.23;;;7.10;;
3407;SDS011;1717;50.240;8.406;2024-02-21T03:16:28;10.20;;;7.60;;
3407;SDS011;1717;50.240;8.406;2024-02-21T03:18:55;9.90;;;7.37;;
3407;SDS011;1717;50.240;8.406;2024-02-21T03:21:22;11.20;;;6.90;;
3407;SDS011;1717;50.240;8.406;2024-02-21T03:23:48;11.70;;;6.13;;
3407;SDS011;1717;50.240;8.406;2024-02-21T03:26:15;12.53;;;6.77;;
3407;SDS011;1717;50.240;8.406;2024-02-21T03:28:42;12.87;;;7.67;;
3407;SDS011;1717;50.240;8.406;2024-02-21T03:31:10;8.57;;;6.20;;
3407;SDS011;1717;50.240;8.406;2024-02-21T03:33:38;7.57;;;5.43;;
3407;SDS011;1717;50.240;8.406;2024-02-21T03:36:05;11.57;;;7.00;;
3407;SDS011;1717;50.240;8.406;2024-02-21T03:38:33;10.77;;;6.60;;
3407;SDS011;1717;50.240;8.406;2024-02-21T03:40:59;10.53;;;7.27;;
3407;SDS011;1717;50.240;8.406;2024-02-21T03:43:26;9.00;;;6.40;;
3407;SDS011;1717;50.240;8.406;2024-02-21T03:45:53;16.80;;;6.20;;
3407;SDS011;1717;50.240;8.406;2024-02-21T03:48:20;13.93;;;7.20;;
3407;SDS011;1717;50.240;8.406;2024-02-21T03:50:48;11.80;;;6.30;;
3407;SDS011;1717;50.240;8.406;2024-02-21T03:53:15;12.23;;;6.57;;
3407;SDS011;1717;50.240;8.406;2024-02-21T03:55:42;10.37;;;8.00;;
3407;SDS011;1717;50.240;8.406;2024-02-21T03:58:09;22.80;;;6.77;;
3407;SDS011;1717;50.240;8.406;2024-02-21T04:00:36;13.53;;;6.20;;
3407;SDS011;1717;50.240;8.406;2024-02-21T04:03:04;12.90;;;6.00;;
3407;SDS011;1717;50.240;8.406;2024-02-21T04:05:31;11.60;;;6.60;;
3407;SDS011;1717;50.240;8.406;2024-02-21T04:07:59;9.40;;;6.67;;
3407;SDS011;1717;50.240;8.406;2024-02-21T04:10:29;13.30;;;7.83;;
3407;SDS011;1717;50.240;8.406;2024-02-21T04:12:56;11.20;;;6.80;;
3407;SDS011;1717;50.240;8.406;2024-02-21T04:15:22;12.30;;;7.00;;
3407;SDS011;1717;50.240;8.406;2024-02-21T04:17:49;12.70;;;6.50;;
3407;SDS011;1717;50.240;8.406;2024-02-21T04:20:17;15.20;;;6.50;;
3407;SDS011;1717;50.240;8.406;2024-02-21T04:22:44;8.80;;;6.27;;
3407;SDS011;1717;50.240;8.406;2024-02-21T04:25:13;7.53;;;6.17;;
3407;SDS011;1717;50.240;8.406;2024-02-21T04:27:39;12.47;;;7.20;;
3407;SDS011;1717;50.240;8.406;2024-02-21T04:30:07;11.20;;;7.00;;
3407;SDS011;1717;50.240;8.406;2024-02-21T04:32:34;11.43;;;6.33;;
3407;SDS011;1717;50.240;8.406;2024-02-21T04:35:01;16.40;;;6.50;;
3407;SDS011;1717;50.240;8.406;2024-02-21T04:37:28;7.40;;;5.97;;
3407;SDS011;1717;50.240;8.406;2024-02-21T04:39:55;14.90;;;7.00;;
3407;SDS011;1717;50.240;8.406;2024-02-21T04:42:23;10.33;;;6.40;;
3407;SDS011;1717;50.240;8.406;2024-02-21T04:44:50;7.30;;;6.27;;
3407;SDS011;1717;50.240;8.406;2024-02-21T04:47:18;12.13;;;6.13;;
3407;SDS011;1717;50.240;8.406;2024-02-21T04:49:45;10.97;;;6.53;;
3407;SDS011;1717;50.240;8.406;2024-02-21T04:52:12;11.33;;;6.37;;
3407;SDS011;1717;50.240;8.406;2024-02-21T04:54:39;10.53;;;6.77;;
3407;SDS011;1717;50.240;8.406;2024-02-21T04:57:06;10.20;;;6.77;;
3407;SDS011;1717;50.240;8.406;2024-02-21T04:59:36;13.60;;;6.63;;
3407;SDS011;1717;50.240;8.406;2024-02-21T05:02:03;8.73;;;6.20;;
3407;SDS011;1717;50.240;8.406;2024-02-21T05:04:30;13.37;;;6.60;;
3407;SDS011;1717;50.240;8.406;2024-02-21T05:06:57;9.13;;;7.30;;
3407;SDS011;1717;50.240;8.406;2024-02-21T05:09:25;12.20;;;6.53;;
3407;SDS011;1717;50.240;8.406;2024-02-21T05:11:52;12.13;;;6.93;;
3407;SDS011;1717;50.240;8.406;2024-02-21T05:14:19;14.03;;;7.03;;
3407;SDS011;1717;50.240;8.406;2024-02-21T05:16:47;13.73;;;7.20;;
3407;SDS011;1717;50.240;8.406;2024-02-21T05:19:14;12.43;;;7.03;;
3407;SDS011;1717;50.240;8.406;2024-02-21T05:21:41;15.87;;;7.70;;
3407;SDS011;1717;50.240;8.406;2024-02-21T05:24:07;19.00;;;7.60;;
3407;SDS011;1717;50.240;8.406;2024-02-21T05:26:34;15.33;;;8.50;;
3407;SDS011;1717;50.240;8.406;2024-02-21T05:29:01;10.83;;;7.27;;
3407;SDS011;1717;50.240;8.406;2024-02-21T05:31:28;9.13;;;7.10;;
3407;SDS011;1717;50.240;8.406;2024-02-21T05:34:21;12.07;;;6.83;;
3407;SDS011;1717;50.240;8.406;2024-02-21T05:36:48;12.10;;;7.43;;
3407;SDS011;1717;50.240;8.406;2024-02-21T05:39:15;10.63;;;7.40;;
3407;SDS011;1717;50.240;8.406;2024-02-21T05:41:42;15.03;;;7.50;;
3407;SDS011;1717;50.240;8.406;2024-02-21T05:44:09;13.13;;;6.57;;
3407;SDS011;1717;50.240;8.406;2024-02-21T05:46:36;10.63;;;6.20;;
3407;SDS011;1717;50.240;8.406;2024-02-21T05:49:03;13.03;;;6.00;;
3407;SDS011;1717;50.240;8.406;2024-02-21T05:51:33;11.47;;;5.60;;
3407;SDS011;1717;50.240;8.406;2024-02-21T05:54:00;11.67;;;4.97;;
3407;SDS011;1717;50.240;8.406;2024-02-21T05:56:26;11.97;;;6.27;;
3407;SDS011;1717;50.240;8.406;2024-02-21T05:58:53;13.60;;;6.60;;
3407;SDS011;1717;50.240;8.406;2024-02-21T06:01:20;13.27;;;6.57;;
3407;SDS011;1717;50.240;8.406;2024-02-21T06:03:47;16.17;;;7.67;;
3407;SDS011;1717;50.240;8.406;2024-02-21T06:06:14;22.80;;;8.33;;
3407;SDS011;1717;50.240;8.406;2024-02-21T06:08:42;17.13;;;8.20;;
3407;SDS011;1717;50.240;8.406;2024-02-21T06:11:09;12.27;;;6.40;;
3407;SDS011;1717;50.240;8.406;2024-02-21T06:13:37;10.30;;;6.73;;
3407;SDS011;1717;50.240;8.406;2024-02-21T06:16:06;13.73;;;7.50;;
3407;SDS011;1717;50.240;8.406;2024-02-21T06:18:35;14.43;;;7.83;;
3407;SDS011;1717;50.240;8.406;2024-02-21T06:21:02;14.23;;;7.53;;
3407;SDS011;1717;50.240;8.406;2024-02-21T06:23:29;13.80;;;7.80;;
3407;SDS011;1717;50.240;8.406;2024-02-21T06:25:57;16.10;;;8.23;;
3407;SDS011;1717;50.240;8.406;2024-02-21T06:28:24;10.73;;;7.83;;
3407;SDS011;1717;50.240;8.406;2024-02-21T06:30:52;10.03;;;7.33;;
3407;SDS011;1717;50.240;8.406;2024-02-21T06:33:18;12.50;;;6.90;;
3407;SDS011;1717;50.240;8.406;2024-02-21T06:35:49;13.17;;;7.53;;
3407;SDS011;1717;50.240;8.406;2024-02-21T06:38:18;12.70;;;6.70;;
3407;SDS011;1717;50.240;8.406;2024-02-21T06:40:44;15.63;;;8.50;;
3407;SDS011;1717;50.240;8.406;2024-02-21T06:43:16;18.60;;;8.67;;
3407;SDS011;1717;50.240;8.406;2024-02-21T06:45:44;15.90;;;7.30;;
3407;SDS011;1717;50.240;8.406;2024-02-21T06:48:12;13.50;;;8.50;;
3407;SDS011;1717;50.240;8.406;2024-02-21T06:50:39;19.00;;;7.60;;
3407;SDS011;1717;50.240;8.406;2024-02-21T06:53:06;15.13;;;8.50;;
3407;SDS011;1717;50.240;8.406;2024-02-21T06:55:33;17.13;;;11.10;;
3407;SDS011;1717;50.240;8.406;2024-02-21T06:58:00;11.53;;;7.40;;
3407;SDS011;1717;50.240;8.406;2024-02-21T07:00:28;15.43;;;8.23;;
3407;SDS011;1717;50.240;8.406;2024-02-21T07:02:55;20.63;;;9.77;;
3407;SDS011;1717;50.240;8.406;2024-02-21T07:05:23;11.00;;;7.20;;
3407;SDS011;1717;50.240;8.406;2024-02-21T07:07:50;12.40;;;7.53;;
3407;SDS011;1717;50.240;8.406;2024-02-21T07:10:16;14.70;;;8.33;;
3407;SDS011;1717;50.240;8.406;2024-02-21T07:12:43;21.10;;;10.37;;
3407;SDS011;1717;50.240;8.406;2024-02-21T07:15:10;17.60;;;8.90;;
3407;SDS011;1717;50.240;8.406;2024-02-21T07:17:38;23.00;;;9.00;;
3407;SDS011;1717;50.240;8.406;2024-02-21T07:20:05;15.67;;;9.20;;
3407;SDS011;1717;50.240;8.406;2024-02-21T07:22:33;16.23;;;9.00;;
3407;SDS011;1717;50.240;8.406;2024-02-21T07:25:00;12.47;;;8.07;;
3407;SDS011;1717;50.240;8.406;2024-02-21T07:27:27;18.37;;;10.13;;
3407;SDS011;1717;50.240;8.406;2024-02-21T07:29:56;14.43;;;8.93;;
3407;SDS011;1717;50.240;8.406;2024-02-21T07:32:23;12.80;;;8.50;;
3407;SDS011;1717;50.240;8.406;2024-02-21T07:34:51;14.63;;;8.50;;
3407;SDS011;1717;50.240;8.406;2024-02-21T07:37:18;18.63;;;8.70;;
3407;SDS011;1717;50.240;8.406;2024-02-21T07:39:45;17.63;;;9.67;;
3407;SDS011;1717;50.240;8.406;2024-02-21T07:42:11;15.30;;;9.20;;
3407;SDS011;1717;50.240;8.406;2024-02-21T07:44:38;10.73;;;8.83;;
3407;SDS011;1717;50.240;8.406;2024-02-21T07:47:05;16.10;;;9.43;;
3407;SDS011;1717;50.240;8.406;2024-02-21T07:49:33;11.50;;;9.27;;
3407;SDS011;1717;50.240;8.406;2024-02-21T07:52:08;16.30;;;10.50;;
3407;SDS011;1717;50.240;8.406;2024-02-21T07:54:35;14.70;;;9.03;;
3407;SDS011;1717;50.240;8.406;2024-02-21T07:57:02;17.03;;;9.03;;
3407;SDS011;1717;50.240;8.406;2024-02-21T07:59:29;16.33;;;10.07;;
3407;SDS011;1717;50.240;8.406;2024-02-21T08:01:56;15.77;;;9.70;;
3407;SDS011;1717;50.240;8.406;2024-02-21T08:04:23;13.53;;;9.70;;
3407;SDS011;1717;50.240;8.406;2024-02-21T08:06:51;21.13;;;9.80;;
3407;SDS011;1717;50.240;8.406;2024-02-21T08:09:19;14.10;;;9.37;;
3407;SDS011;1717;50.240;8.406;2024-02-21T08:11:46;20.20;;;10.10;;
3407;SDS011;1717;50.240;8.406;2024-02-21T08:14:13;16.00;;;8.97;;
3407;SDS011;1717;50.240;8.406;2024-02-21T08:16:41;18.60;;;10.37;;
3407;SDS011;1717;50.240;8.406;2024-02-21T08:19:08;11.03;;;8.40;;
3407;SDS011;1717;50.240;8.406;2024-02-21T08:21:35;20.43;;;9.13;;
3407;SDS011;1717;50.240;8.406;2024-02-21T08:24:02;13.00;;;8.80;;
3407;SDS011;1717;50.240;8.406;2024-02-21T08:26:31;10.13;;;8.43;;
3407;SDS011;1717;50.240;8.406;2024-02-21T08:28:58;11.13;;;7.67;;
3407;SDS011;1717;50.240;8.406;2024-02-21T08:31:25;17.07;;;9.10;;
3407;SDS011;1717;50.240;8.406;2024-02-21T08:33:56;13.90;;;9.00;;
3407;SDS011;1717;50.240;8.406;2024-02-21T08:36:27;13.30;;;8.23;;
3407;SDS011;1717;50.240;8.406;2024-02-21T08:38:54;15.77;;;8.80;;
3407;SDS011;1717;50.240;8.406;2024-02-21T08:41:21;15.03;;;8.20;;
3407;SDS011;1717;50.240;8.406;2024-02-21T08:43:50;12.93;;;8.63;;
3407;SDS011;1717;50.240;8.406;2024-02-21T08:46:18;13.60;;;7.97;;
3407;SDS011;1717;50.240;8.406;2024-02-21T08:48:45;21.50;;;9.27;;
3407;SDS011;1717;50.240;8.406;2024-02-21T08:51:13;14.73;;;8.63;;
3407;SDS011;1717;50.240;8.406;2024-02-21T08:53:40;16.00;;;8.97;;
3407;SDS011;1717;50.240;8.406;2024-02-21T08:56:07;15.07;;;9.10;;
3407;SDS011;1717;50.240;8.406;2024-02-21T08:58:34;18.60;;;9.27;;
3407;SDS011;1717;50.240;8.406;2024-02-21T09:01:04;11.63;;;8.07;;
3407;SDS011;1717;50.240;8.406;2024-02-21T09:03:32;14.50;;;8.60;;
3407;SDS011;1717;50.240;8.406;2024-02-21T09:05:59;15.73;;;8.43;;
3407;SDS011;1717;50.240;8.406;2024-02-21T09:08:26;14.70;;;8.50;;
3407;SDS011;1717;50.240;8.406;2024-02-21T09:10:53;12.83;;;8.70;;
3407;SDS011;1717;50.240;8.406;2024-02-21T09:13:20;10.10;;;7.50;;
3407;SDS011;1717;50.240;8.406;2024-02-21T09:15:47;14.60;;;7.50;;
3407;SDS011;1717;50.240;8.406;2024-02-21T09:18:15;12.70;;;8.67;;
3407;SDS011;1717;50.240;8.406;2024-02-21T09:20:42;10.60;;;7.40;;
3407;SDS011;1717;50.240;8.406;2024-02-21T09:23:09;13.20;;;7.57;;
3407;SDS011;1717;50.240;8.406;2024-02-21T09:25:36;12.23;;;6.73;;
3407;SDS011;1717;50.240;8.406;2024-02-21T09:28:03;12.07;;;7.00;;
3407;SDS011;1717;50.240;8.406;2024-02-21T09:30:32;12.30;;;8.07;;
3407;SDS011;1717;50.240;8.406;2024-02-21T09:32:58;12.53;;;8.20;;
3407;SDS011;1717;50.240;8.406;2024-02-21T09:35:28;13.83;;;8.20;;
3407;SDS011;1717;50.240;8.406;2024-02-21T09:37:55;18.60;;;8.60;;
3407;SDS011;1717;50.240;8.406;2024-02-21T09:40:22;11.53;;;7.30;;
3407;SDS011;1717;50.240;8.406;2024-02-21T09:42:50;12.03;;;7.33;;
3407;SDS011;1717;50.240;8.406;2024-02-21T09:45:28;13.30;;;7.77;;
3407;SDS011;1717;50.240;8.406;2024-02-21T09:47:59;19.73;;;9.70;;
3407;SDS011;1717;50.240;8.406;2024-02-21T09:50:37;18.83;;;8.47;;
3407;SDS011;1717;50.240;8.406;2024-02-21T09:53:07;14.60;;;7.60;;
3407;SDS011;1717;50.240;8.406;2024-02-21T09:55:34;14.50;;;8.37;;
3407;SDS011;1717;50.240;8.406;2024-02-21T09:58:05;16.23;;;8.90;;
3407;SDS011;1717;50.240;8.406;2024-02-21T10:00:33;13.13;;;8.30;;
3407;SDS011;1717;50.240;8.406;2024-02-21T10:03:01;18.00;;;9.93;;
3407;SDS011;1717;50.240;8.406;2024-02-21T10:05:32;19.23;;;10.47;;
3407;SDS011;1717;50.240;8.406;2024-02-21T10:08:02;12.97;;;9.60;;
3407;SDS011;1717;50.240;8.406;2024-02-21T10:10:30;15.97;;;9.50;;
3407;SDS011;1717;50.240;8.406;2024-02-21T10:13:08;14.60;;;11.10;;
3407;SDS011;1717;50.240;8.406;2024-02-21T10:15:35;22.60;;;12.03;;
3407;SDS011;1717;50.240;8.406;2024-02-21T10:18:02;21.43;;;10.50;;
3407;SDS011;1717;50.240;8.406;2024-02-21T10:20:31;19.33;;;10.87;;
3407;SDS011;1717;50.240;8.406;2024-02-21T10:23:03;18.53;;;10.33;;
3407;SDS011;1717;50.240;8.406;2024-02-21T10:25:33;19.70;;;10.93;;
3407;SDS011;1717;50.240;8.406;2024-02-21T10:28:01;16.40;;;10.07;;
3407;SDS011;1717;50.240;8.406;2024-02-21T10:30:29;18.93;;;10.83;;
3407;SDS011;1717;50.240;8.406;2024-02-21T10:32:56;17.10;;;10.90;;
3407;SDS011;1717;50.240;8.406;2024-02-21T10:35:27;17.77;;;11.20;;
3407;SDS011;1717;50.240;8.406;2024-02-21T10:37:55;14.97;;;10.50;;
3407;SDS011;1717;50.240;8.406;2024-02-21T10:40:27;16.37;;;11.00;;
3407;SDS011;1717;50.240;8.406;2024-02-21T10:42:56;18.63;;;10.20;;
3407;SDS011;1717;50.240;8.406;2024-02-21T10:45:28;22.03;;;10.63;;
3407;SDS011;1717;50.240;8.406;2024-02-21T10:48:01;14.70;;;10.17;;
3407;SDS011;1717;50.240;8.406;2024-02-21T10:50:36;13.67;;;9.57;;
3407;SDS011;1717;50.240;8.406;2024-02-21T10:53:15;14.10;;;10.47;;
3407;SDS011;1717;50.240;8.406;2024-02-21T10:55:56;17.10;;;10.33;;
3407;SDS011;1717;50.240;8.406;2024-02-21T10:58:33;16.93;;;11.20;;
3407;SDS011;1717;50.240;8.406;2024-02-21T11:01:01;17.97;;;10.03;;
3407;SDS011;1717;50.240;8.406;2024-02-21T11:03:29;14.30;;;9.73;;
3407;SDS011;1717;50.240;8.406;2024-02-21T11:05:57;14.93;;;9.60;;
3407;SDS011;1717;50.240;8.406;2024-02-21T11:08:24;16.10;;;10.47;;
3407;SDS011;1717;50.240;8.406;2024-02-21T11:10:58;14.63;;;9.57;;
3407;SDS011;1717;50.240;8.406;2024-02-21T11:13:34;18.73;;;9.20;;
3407;SDS011;1717;50.240;8.406;2024-02-21T11:16:08;14.57;;;8.80;;
3407;SDS011;1717;50.240;8.406;2024-02-21T11:18:36;13.60;;;7.97;;
3407;SDS011;1717;50.240;8.406;2024-02-21T11:21:03;17.10;;;9.20;;
3407;SDS011;1717;50.240;8.406;2024-02-21T11:23:31;16.33;;;8.50;;
3407;SDS011;1717;50.240;8.406;2024-02-21T11:26:06;15.67;;;9.93;;
3407;SDS011;1717;50.240;8.406;2024-02-21T11:28:34;11.10;;;8.00;;
3407;SDS011;1717;50.240;8.406;2024-02-21T11:31:08;12.07;;;8.07;;
3407;SDS011;1717;50.240;8.406;2024-02-21T11:33:39;14.07;;;8.77;;
3407;SDS011;1717;50.240;8.406;2024-02-21T11:36:06;18.00;;;8.73;;
3407;SDS011;1717;50.240;8.406;2024-02-21T11:38:34;17.07;;;8.67;;
3407;SDS011;1717;50.240;8.406;2024-02-21T11:41:01;14.47;;;8.47;;
3407;SDS011;1717;50.240;8.406;2024-02-21T11:43:29;12.27;;;7.50;;
3407;SDS011;1717;50.240;8.406;2024-02-21T11:45:59;10.80;;;6.43;;
3407;SDS011;1717;50.240;8.406;2024-02-21T11:48:28;12.27;;;7.40;;
3407;SDS011;1717;50.240;8.406;2024-02-21T11:50:56;8.47;;;6.10;;
3407;SDS011;1717;50.240;8.406;2024-02-21T11:53:23;17.93;;;6.50;;
3407;SDS011;1717;50.240;8.406;2024-02-21T11:55:52;15.63;;;7.40;;
3407;SDS011;1717;50.240;8.406;2024-02-21T11:58:20;10.67;;;6.90;;
3407;SDS011;1717;50.240;8.406;2024-02-21T12:00:49;10.00;;;6.97;;
3407;SDS011;1717;50.240;8.406;2024-02-21T12:03:15;9.23;;;6.10;;
3407;SDS011;1717;50.240;8.406;2024-02-21T12:05:42;18.20;;;7.00;;
3407;SDS011;1717;50.240;8.406;2024-02-21T12:08:11;9.60;;;5.87;;
3407;SDS011;1717;50.240;8.406;2024-02-21T12:10:38;9.97;;;5.73;;
3407;SDS011;1717;50.240;8.406;2024-02-21T12:13:05;7.60;;;5.13;;
3407;SDS011;1717;50.240;8.406;2024-02-21T12:15:33;7.43;;;6.10;;
3407;SDS011;1717;50.240;8.406;2024-02-21T12:18:01;8.50;;;5.03;;
3407;SDS011;1717;50.240;8.406;2024-02-21T12:20:28;9.27;;;5.70;;
3407;SDS011;1717;50.240;8.406;2024-02-21T12:22:59;12.27;;;6.30;;
3407;SDS011;1717;50.240;8.406;2024-02-21T12:27:54;10.27;;;5.87;;
3407;SDS011;1717;50.240;8.406;2024-02-21T12:30:21;13.97;;;6.70;;
3407;SDS011;1717;50.240;8.406;2024-02-21T12:32:48;15.90;;;6.37;;
3407;SDS011;1717;50.240;8.406;2024-02-21T12:35:16;11.17;;;7.13;;
3407;SDS011;1717;50.240;8.406;2024-02-21T12:37:44;9.07;;;5.40;;
3407;SDS011;1717;50.240;8.406;2024-02-21T12:40:11;16.00;;;6.90;;
3407;SDS011;1717;50.240;8.406;2024-02-21T12:42:39;11.07;;;5.83;;
3407;SDS011;1717;50.240;8.406;2024-02-21T12:45:07;9.97;;;5.60;;
3407;SDS011;1717;50.240;8.406;2024-02-21T12:47:34;8.70;;;6.33;;
3407;SDS011;1717;50.240;8.406;2024-02-21T12:50:01;13.90;;;6.67;;
3407;SDS011;1717;50.240;8.406;2024-02-21T12:52:33;10.53;;;5.47;;
3407;SDS011;1717;50.240;8.406;2024-02-21T12:55:00;10.83;;;5.40;;
3407;SDS011;1717;50.240;8.406;2024-02-21T12:57:27;9.87;;;5.37;;
3407;SDS011;1717;50.240;8.406;2024-02-21T12:59:55;14.30;;;6.73;;
3407;SDS011;1717;50.240;8.406;2024-02-21T13:02:22;12.10;;;5.60;;
3407;SDS011;1717;50.240;8.406;2024-02-21T13:04:49;11.60;;;5.50;;
3407;SDS011;1717;50.240;8.406;2024-02-21T13:07:16;11.37;;;5.47;;
3407;SDS011;1717;50.240;8.406;2024-02-21T13:09:45;9.13;;;5.83;;
3407;SDS011;1717;50.240;8.406;2024-02-21T13:12:12;11.20;;;4.43;;
3407;SDS011;1717;50.240;8.406;2024-02-21T13:14:39;13.63;;;5.70;;
3407;SDS011;1717;50.240;8.406;2024-02-21T13:17:08;6.43;;;4.90;;
3407;SDS011;1717;50.240;8.406;2024-02-21T13:19:36;9.83;;;4.70;;
3407;SDS011;1717;50.240;8.406;2024-02-21T13:22:03;8.60;;;4.80;;
3407;SDS011;1717;50.240;8.406;2024-02-21T13:24:30;6.90;;;3.97;;
3407;SDS011;1717;50.240;8.406;2024-02-21T13:26:58;7.93;;;4.03;;
3407;SDS011;1717;50.240;8.406;2024-02-21T13:29:25;9.60;;;4.90;;
3407;SDS011;1717;50.240;8.406;2024-02-21T13:31:53;7.00;;;4.30;;
3407;SDS011;1717;50.240;8.406;2024-02-21T13:34:20;9.63;;;4.80;;
3407;SDS011;1717;50.240;8.406;2024-02-21T13:36:47;10.33;;;5.27;;
3407;SDS011;1717;50.240;8.406;2024-02-21T13:39:14;8.77;;;5.00;;
3407;SDS011;1717;50.240;8.406;2024-02-21T13:41:41;10.40;;;4.87;;
3407;SDS011;1717;50.240;8.406;2024-02-21T13:44:09;10.07;;;4.70;;
3407;SDS011;1717;50.240;8.406;2024-02-21T13:46:37;7.37;;;5.00;;
3407;SDS011;1717;50.240;8.406;2024-02-21T13:49:04;9.80;;;4.87;;
3407;SDS011;1717;50.240;8.406;2024-02-21T13:51:32;15.40;;;4.90;;
3407;SDS011;1717;50.240;8.406;2024-02-21T13:54:01;10.93;;;5.13;;
3407;SDS011;1717;50.240;8.406;2024-02-21T13:56:28;10.47;;;5.90;;
3407;SDS011;1717;50.240;8.406;2024-02-21T13:58:55;9.60;;;4.60;;
3407;SDS011;1717;50.240;8.406;2024-02-21T14:01:26;9.13;;;5.30;;
3407;SDS011;1717;50.240;8.406;2024-02-21T14:03:54;10.07;;;4.70;;
3407;SDS011;1717;50.240;8.406;2024-02-21T14:06:21;10.00;;;4.87;;
3407;SDS011;1717;50.240;8.406;2024-02-21T14:08:47;8.63;;;5.73;;
3407;SDS011;1717;50.240;8.406;2024-02-21T14:11:15;8.67;;;5.17;;
3407;SDS011;1717;50.240;8.406;2024-02-21T14:13:41;9.30;;;5.50;;
3407;SDS011;1717;50.240;8.406;2024-02-21T14:16:10;10.33;;;5.53;;
3407;SDS011;1717;50.240;8.406;2024-02-21T14:18:39;10.40;;;5.50;;
3407;SDS011;1717;50.240;8.406;2024-02-21T14:21:07;8.27;;;5.50;;
3407;SDS011;1717;50.240;8.406;2024-02-21T14:23:35;8.20;;;5.07;;
3407;SDS011;1717;50.240;8.406;2024-02-21T14:26:02;8.10;;;6.00;;
3407;SDS011;1717;50.240;8.406;2024-02-21T14:28:29;8.70;;;5.40;;
3407;SDS011;1717;50.240;8.406;2024-02-21T14:30:56;14.37;;;5.03;;
3407;SDS011;1717;50.240;8.406;2024-02-21T14:33:25;8.90;;;5.07;;
3407;SDS011;1717;50.240;8.406;2024-02-21T14:35:53;8.37;;;5.50;;
3407;SDS011;1717;50.240;8.406;2024-02-21T14:38:20;15.60;;;5.20;;
3407;SDS011;1717;50.240;8.406;2024-02-21T14:40:47;9.93;;;5.70;;
3407;SDS011;1717;50.240;8.406;2024-02-21T14:43:14;7.93;;;5.00;;
3407;SDS011;1717;50.240;8.406;2024-02-21T14:45:42;9.70;;;4.70;;
3407;SDS011;1717;50.240;8.406;2024-02-21T14:48:12;12.87;;;4.60;;
3407;SDS011;1717;50.240;8.406;2024-02-21T14:50:39;8.93;;;5.23;;
3407;SDS011;1717;50.240;8.406;2024-02-21T14:53:08;8.77;;;4.00;;
3407;SDS011;1717;50.240;8.406;2024-02-21T14:55:35;8.40;;;4.73;;
3407;SDS011;1717;50.240;8.406;2024-02-21T14:58:05;10.23;;;5.00;;
3407;SDS011;1717;50.240;8.406;2024-02-21T15:00:33;7.97;;;5.23;;
3407;SDS011;1717;50.240;8.406;2024-02-21T15:03:00;7.20;;;4.27;;
3407;SDS011;1717;50.240;8.406;2024-02-21T15:05:27;9.73;;;4.13;;
3407;SDS011;1717;50.240;8.406;2024-02-21T15:07:55;10.00;;;4.50;;
3407;SDS011;1717;50.240;8.406;2024-02-21T15:10:24;7.13;;;4.37;;